Time;durP1;ratioP1;P1;durP2;ratioP2;P2;SDS_P1;SDS_P2;PMS_P1;PMS_P2;Temp;Humidity;BMP_temperature;BMP_pressure;BME280_temperature;BME280_humidity;BME280_pressure;Samples;Min_cycle;Max_cycle;Signal;HPM_P1;HPM_P2
2023/05/03 00:00:26;;;;;;;8.73;5.50;;;9.60;99.90;;;;;;4990375;28;20192;-36
2023/05/03 00:02:53;;;;;;;7.03;4.60;;;9.40;99.90;;;;;;4989019;28;20198;-36
2023/05/03 00:05:19;;;;;;;6.83;5.30;;;9.30;99.90;;;;;;5009712;28;20293;-38
2023/05/03 00:07:45;;;;;;;7.43;5.23;;;9.30;99.90;;;;;;4990778;28;20278;-36
2023/05/03 00:10:12;;;;;;;9.17;5.60;;;9.30;99.90;;;;;;4991313;28;20262;-36
2023/05/03 00:12:40;;;;;;;8.60;4.97;;;9.30;99.90;;;;;;4990045;28;20266;-36
2023/05/03 00:15:07;;;;;;;7.70;5.10;;;9.30;99.90;;;;;;4990668;28;20198;-36
2023/05/03 00:17:33;;;;;;;11.17;5.60;;;9.30;99.90;;;;;;4993807;28;20202;-38
2023/05/03 00:20:00;;;;;;;10.40;5.47;;;9.20;99.90;;;;;;4993693;28;20195;-39
2023/05/03 00:22:26;;;;;;;7.77;5.10;;;9.20;99.90;;;;;;4990657;28;20200;-37
2023/05/03 00:24:52;;;;;;;12.73;6.40;;;9.20;99.90;;;;;;4990871;28;20191;-35
2023/05/03 00:27:18;;;;;;;9.53;6.00;;;9.20;99.90;;;;;;4993557;28;20188;-36
2023/05/03 00:29:45;;;;;;;9.97;6.00;;;9.20;99.90;;;;;;4977344;28;20190;-37
2023/05/03 00:32:11;;;;;;;9.43;5.53;;;9.20;99.90;;;;;;4988789;28;20207;-38
2023/05/03 00:34:39;;;;;;;8.43;5.30;;;9.20;99.90;;;;;;5000519;28;20175;-37
2023/05/03 00:37:05;;;;;;;8.90;6.00;;;9.20;99.90;;;;;;4993431;28;20233;-36
2023/05/03 00:39:31;;;;;;;7.73;5.27;;;9.20;99.90;;;;;;4990093;28;20180;-37
2023/05/03 00:41:58;;;;;;;7.93;5.37;;;9.20;99.90;;;;;;4989383;28;20281;-36
2023/05/03 00:44:24;;;;;;;7.73;5.37;;;9.10;99.90;;;;;;4996011;28;20234;-35
2023/05/03 00:46:51;;;;;;;8.30;5.57;;;9.20;99.90;;;;;;4990337;28;20212;-36
2023/05/03 00:49:17;;;;;;;8.37;5.23;;;9.20;99.90;;;;;;4986341;28;20258;-37
2023/05/03 00:51:43;;;;;;;7.57;5.47;;;9.20;99.90;;;;;;4989999;28;20230;-36
2023/05/03 00:54:10;;;;;;;7.77;5.87;;;9.10;99.90;;;;;;4991900;28;20175;-38
2023/05/03 00:56:38;;;;;;;8.03;5.60;;;9.10;99.90;;;;;;4990110;28;20187;-36
2023/05/03 00:59:05;;;;;;;10.80;5.10;;;9.10;99.90;;;;;;4993355;28;20186;-36
2023/05/03 01:01:31;;;;;;;8.80;5.70;;;9.00;99.90;;;;;;4985158;28;20266;-36
2023/05/03 01:04:03;;;;;;;8.80;5.63;;;9.00;99.90;;;;;;4987191;28;20187;-35
2023/05/03 01:07:11;;;;;;;8.00;4.93;;;9.00;99.90;;;;;;4992940;28;20229;-36
2023/05/03 01:09:48;;;;;;;8.00;5.27;;;9.00;99.90;;;;;;4986739;28;20184;-37
2023/05/03 01:12:59;;;;;;;7.67;4.97;;;9.10;99.90;;;;;;4996476;28;20195;-37
2023/05/03 01:15:55;;;;;;;7.03;5.23;;;9.10;99.90;;;;;;4993170;28;20202;-35
2023/05/03 01:18:33;;;;;;;7.03;5.00;;;9.00;99.90;;;;;;4973523;28;20655;-38
2023/05/03 01:21:01;;;;;;;7.60;5.20;;;9.00;99.90;;;;;;4997959;28;20195;-36
2023/05/03 01:23:41;;;;;;;8.83;5.73;;;8.90;99.90;;;;;;4979200;28;20198;-36
2023/05/03 01:26:15;;;;;;;8.33;5.43;;;8.90;99.90;;;;;;4990017;28;20210;-36
2023/05/03 01:28:41;;;;;;;8.30;5.47;;;8.90;99.90;;;;;;4992613;28;20801;-36
2023/05/03 01:31:07;;;;;;;8.17;5.50;;;8.90;99.90;;;;;;4990818;28;20286;-38
2023/05/03 01:33:43;;;;;;;7.37;5.53;;;8.80;99.90;;;;;;4989988;28;20241;-37
2023/05/03 01:36:21;;;;;;;8.00;5.37;;;8.80;99.90;;;;;;5007596;28;20195;-36
2023/05/03 01:38:48;;;;;;;11.23;6.37;;;8.70;99.90;;;;;;4990027;28;20266;-37
2023/05/03 01:41:17;;;;;;;9.47;6.23;;;8.60;99.90;;;;;;4986033;28;20200;-37
2023/05/03 01:43:44;;;;;;;10.40;5.90;;;8.60;99.90;;;;;;4992038;28;20270;-36
2023/05/03 01:46:10;;;;;;;8.60;6.17;;;8.50;99.90;;;;;;4989906;28;20211;-37
2023/05/03 01:48:36;;;;;;;10.07;5.50;;;8.50;99.90;;;;;;4992540;28;20187;-35
2023/05/03 01:51:02;;;;;;;7.70;5.70;;;8.40;99.90;;;;;;4988146;28;20200;-35
2023/05/03 01:53:27;;;;;;;9.73;5.77;;;8.40;99.90;;;;;;4989893;28;20181;-38
2023/05/03 01:55:53;;;;;;;8.67;6.00;;;8.30;99.90;;;;;;5015070;28;20267;-38
2023/05/03 01:58:19;;;;;;;11.00;5.73;;;8.20;99.90;;;;;;5005950;28;20723;-35
2023/05/03 02:00:46;;;;;;;10.90;5.30;;;8.20;99.90;;;;;;4988582;28;20183;-37
2023/05/03 02:03:12;;;;;;;10.30;5.93;;;8.10;99.90;;;;;;4988865;28;20640;-36
2023/05/03 02:05:38;;;;;;;6.57;5.00;;;8.10;99.90;;;;;;4992352;28;20202;-36
2023/05/03 02:08:04;;;;;;;7.20;5.03;;;8.10;99.90;;;;;;4992757;28;20191;-35
2023/05/03 02:10:29;;;;;;;6.63;5.03;;;8.10;99.90;;;;;;4991757;28;20184;-37
2023/05/03 02:12:55;;;;;;;10.27;5.77;;;8.00;99.90;;;;;;4992163;28;20203;-37
2023/05/03 02:15:21;;;;;;;8.60;5.53;;;8.00;99.90;;;;;;4964211;28;20183;-35
2023/05/03 02:17:48;;;;;;;9.07;6.07;;;8.00;99.90;;;;;;5028503;28;20186;-36
2023/05/03 02:20:14;;;;;;;11.73;6.60;;;8.10;99.90;;;;;;4993981;28;20191;-35
2023/05/03 02:22:41;;;;;;;7.93;5.53;;;8.00;99.90;;;;;;4992965;28;20234;-35
2023/05/03 02:25:07;;;;;;;8.13;5.20;;;7.90;99.90;;;;;;4995301;28;20180;-37
2023/05/03 02:27:33;;;;;;;7.70;5.33;;;7.90;99.90;;;;;;4978300;28;20183;-39
2023/05/03 02:29:59;;;;;;;8.23;5.13;;;7.80;99.90;;;;;;4992401;28;20176;-38
2023/05/03 02:32:26;;;;;;;7.60;5.20;;;7.70;99.90;;;;;;4993645;28;20195;-40
2023/05/03 02:34:52;;;;;;;7.07;5.23;;;7.70;99.90;;;;;;4996685;28;20185;-41
2023/05/03 02:37:20;;;;;;;8.97;6.03;;;7.70;99.90;;;;;;4997424;28;20274;-39
2023/05/03 02:39:47;;;;;;;10.40;5.23;;;7.70;99.90;;;;;;4995389;28;20194;-41
2023/05/03 02:42:15;;;;;;;10.60;5.30;;;7.70;99.90;;;;;;4993807;28;20203;-41
2023/05/03 02:44:42;;;;;;;9.07;5.40;;;7.80;99.90;;;;;;4994742;28;20223;-36
2023/05/03 02:47:09;;;;;;;9.23;5.73;;;7.80;99.90;;;;;;4997185;28;20211;-38
2023/05/03 02:49:38;;;;;;;7.37;5.50;;;7.80;99.90;;;;;;4997067;28;20194;-37
2023/05/03 02:52:06;;;;;;;8.83;5.73;;;7.80;99.90;;;;;;4996869;28;20286;-36
2023/05/03 02:54:31;;;;;;;6.97;5.17;;;7.70;99.90;;;;;;4997353;28;20179;-37
2023/05/03 02:57:01;;;;;;;7.73;5.30;;;7.70;99.90;;;;;;4996966;28;20246;-35
2023/05/03 02:59:27;;;;;;;6.47;5.27;;;7.60;99.90;;;;;;4996992;28;20213;-39
2023/05/03 03:01:54;;;;;;;7.93;5.37;;;7.60;99.90;;;;;;4991455;28;20205;-36
2023/05/03 03:04:20;;;;;;;7.97;4.77;;;7.50;99.90;;;;;;5004268;28;20182;-36
2023/05/03 03:06:45;;;;;;;9.33;5.07;;;7.40;99.90;;;;;;4996739;28;20221;-36
2023/05/03 03:09:11;;;;;;;6.63;4.87;;;7.30;99.90;;;;;;5012114;28;20202;-35
2023/05/03 03:11:39;;;;;;;7.87;5.00;;;7.20;99.90;;;;;;4996267;28;20203;-36
2023/05/03 03:14:07;;;;;;;8.50;6.37;;;7.20;99.90;;;;;;4996740;28;20297;-35
2023/05/03 03:16:32;;;;;;;8.67;5.53;;;7.20;99.90;;;;;;4996915;28;20652;-37
2023/05/03 03:18:58;;;;;;;9.30;5.83;;;7.20;99.90;;;;;;4996766;28;20190;-36
2023/05/03 03:21:27;;;;;;;9.17;5.80;;;7.20;99.90;;;;;;4996215;28;20203;-36
2023/05/03 03:23:54;;;;;;;6.90;5.00;;;7.20;99.90;;;;;;4980931;28;20179;-37
2023/05/03 03:26:20;;;;;;;5.43;4.30;;;7.10;99.90;;;;;;4992436;28;20207;-36
2023/05/03 03:28:46;;;;;;;7.97;5.10;;;7.20;99.90;;;;;;5009945;28;20187;-36
2023/05/03 03:31:12;;;;;;;10.00;5.53;;;7.20;99.90;;;;;;4976162;28;20211;-36
2023/05/03 03:33:40;;;;;;;7.73;5.27;;;7.20;99.90;;;;;;5014647;28;20180;-35
2023/05/03 03:36:11;;;;;;;7.87;4.87;;;7.20;99.90;;;;;;4967239;28;20186;-36
2023/05/03 03:38:40;;;;;;;8.83;5.70;;;7.20;99.90;;;;;;4992213;28;20190;-36
2023/05/03 03:41:09;;;;;;;9.27;5.63;;;7.20;99.90;;;;;;5006728;28;20257;-36
2023/05/03 03:43:35;;;;;;;10.77;6.80;;;7.20;99.90;;;;;;5003282;28;20190;-36
2023/05/03 03:46:05;;;;;;;8.00;5.60;;;7.20;99.90;;;;;;4973431;28;20223;-36
2023/05/03 03:48:32;;;;;;;10.77;6.07;;;7.20;99.90;;;;;;4961420;28;20203;-36
2023/05/03 03:50:58;;;;;;;9.97;6.30;;;7.20;99.90;;;;;;4997225;28;20660;-36
2023/05/03 03:53:31;;;;;;;8.73;5.53;;;7.20;99.90;;;;;;4983761;28;20176;-36
2023/05/03 03:55:57;;;;;;;10.27;6.23;;;7.10;99.90;;;;;;4989616;28;20199;-35
2023/05/03 03:58:24;;;;;;;11.50;6.00;;;7.10;99.90;;;;;;5007742;28;20190;-37
2023/05/03 04:00:51;;;;;;;8.13;5.47;;;7.10;99.90;;;;;;4983275;28;20184;-36
2023/05/03 04:03:19;;;;;;;9.33;5.80;;;7.10;99.90;;;;;;5013281;28;20369;-36
2023/05/03 04:05:46;;;;;;;6.80;5.30;;;7.20;99.90;;;;;;5021897;28;20203;-36
2023/05/03 04:08:13;;;;;;;8.53;6.10;;;7.20;99.90;;;;;;5002829;28;20189;-36
2023/05/03 04:10:40;;;;;;;8.97;5.50;;;7.30;99.90;;;;;;4984562;28;20210;-36
2023/05/03 04:13:07;;;;;;;9.47;5.70;;;7.30;99.90;;;;;;4996068;28;20225;-36
2023/05/03 04:15:34;;;;;;;7.57;5.53;;;7.40;99.90;;;;;;4990066;28;20183;-35
2023/05/03 04:18:02;;;;;;;7.53;5.40;;;7.40;99.90;;;;;;4984547;28;20199;-36
2023/05/03 04:20:28;;;;;;;8.53;5.67;;;7.50;99.90;;;;;;4979839;28;20194;-35
2023/05/03 04:22:54;;;;;;;9.33;6.90;;;7.50;99.90;;;;;;4989927;28;20265;-36
2023/05/03 04:25:24;;;;;;;9.70;6.80;;;7.50;99.90;;;;;;4988167;28;20207;-36
2023/05/03 04:27:58;;;;;;;8.60;5.73;;;7.50;99.90;;;;;;4957051;28;20211;-36
2023/05/03 04:30:25;;;;;;;11.63;6.70;;;7.60;99.90;;;;;;4966514;28;20259;-36
2023/05/03 04:32:57;;;;;;;12.70;5.70;;;7.70;99.90;;;;;;4981281;28;20199;-36
2023/05/03 04:35:23;;;;;;;7.57;5.80;;;7.70;99.90;;;;;;4987144;28;20192;-36
2023/05/03 04:37:50;;;;;;;8.60;6.10;;;7.70;99.90;;;;;;4963402;28;20186;-36
2023/05/03 04:40:20;;;;;;;7.70;5.87;;;7.70;99.90;;;;;;4960537;28;20192;-36
2023/05/03 04:42:56;;;;;;;9.23;5.07;;;7.80;99.90;;;;;;4971561;28;20327;-36
2023/05/03 04:45:22;;;;;;;8.27;5.63;;;7.70;99.90;;;;;;4987614;28;20177;-36
2023/05/03 04:47:49;;;;;;;7.30;6.30;;;7.80;99.90;;;;;;4993473;28;20184;-37
2023/05/03 04:50:15;;;;;;;9.83;6.27;;;7.80;99.90;;;;;;4985844;28;20196;-36
2023/05/03 04:52:44;;;;;;;7.40;5.77;;;7.90;99.90;;;;;;4989870;28;20199;-36
2023/05/03 04:55:10;;;;;;;8.30;5.37;;;7.90;99.90;;;;;;4966965;28;20187;-36
2023/05/03 04:57:37;;;;;;;7.07;5.50;;;7.90;99.90;;;;;;5007665;28;20187;-36
2023/05/03 05:00:10;;;;;;;10.13;6.00;;;7.90;99.90;;;;;;4975389;28;20179;-36
2023/05/03 05:02:37;;;;;;;7.20;5.17;;;7.90;99.90;;;;;;4970174;28;20207;-37
2023/05/03 05:05:04;;;;;;;10.40;6.20;;;8.00;99.90;;;;;;4973039;28;20187;-36
2023/05/03 05:07:30;;;;;;;9.97;6.07;;;8.00;99.90;;;;;;5021717;28;20188;-36
2023/05/03 05:09:55;;;;;;;7.33;5.33;;;8.10;99.90;;;;;;5004900;28;20172;-36
2023/05/03 05:12:21;;;;;;;11.70;5.60;;;8.10;99.90;;;;;;4989260;28;20190;-36
2023/05/03 05:14:47;;;;;;;6.77;5.40;;;8.10;99.90;;;;;;5019933;28;20168;-36
2023/05/03 05:17:13;;;;;;;9.10;5.27;;;8.10;99.90;;;;;;5016629;28;20788;-36
2023/05/03 05:19:40;;;;;;;10.33;5.90;;;8.10;99.90;;;;;;5017168;28;20183;-36
2023/05/03 05:22:07;;;;;;;9.13;6.07;;;8.10;99.90;;;;;;4973821;28;20211;-36
2023/05/03 05:24:41;;;;;;;6.37;5.57;;;8.20;99.90;;;;;;4972794;28;20171;-36
2023/05/03 05:27:09;;;;;;;7.87;5.60;;;8.20;99.90;;;;;;5004948;28;20213;-36
2023/05/03 05:29:35;;;;;;;10.83;5.83;;;8.20;99.90;;;;;;4993399;28;20175;-36
2023/05/03 05:32:02;;;;;;;9.83;6.37;;;8.20;99.90;;;;;;4978034;28;20204;-37
2023/05/03 05:34:29;;;;;;;9.00;6.47;;;8.30;99.90;;;;;;4979473;28;20180;-39
2023/05/03 05:36:55;;;;;;;7.13;6.03;;;8.30;99.90;;;;;;5005018;28;20173;-36
2023/05/03 05:39:23;;;;;;;9.80;6.50;;;8.30;99.90;;;;;;5021846;28;20188;-36
2023/05/03 05:41:49;;;;;;;12.43;6.60;;;8.30;99.90;;;;;;4966825;28;20203;-38
2023/05/03 05:44:15;;;;;;;9.93;5.90;;;8.40;99.90;;;;;;4973954;28;20270;-37
2023/05/03 05:46:45;;;;;;;9.13;6.40;;;8.40;99.90;;;;;;5000515;28;20236;-37
2023/05/03 05:49:13;;;;;;;10.33;6.57;;;8.40;99.90;;;;;;4986769;28;20210;-36
2023/05/03 05:51:40;;;;;;;9.37;6.80;;;8.40;99.90;;;;;;4990970;28;20218;-36
2023/05/03 05:54:07;;;;;;;11.90;6.93;;;8.50;99.90;;;;;;4980496;28;20179;-38
2023/05/03 05:56:33;;;;;;;8.10;6.60;;;8.50;99.90;;;;;;4993498;28;20211;-37
2023/05/03 05:58:59;;;;;;;8.83;5.93;;;8.50;99.90;;;;;;4981795;28;20204;-38
2023/05/03 06:01:25;;;;;;;11.10;6.97;;;8.60;99.90;;;;;;5010514;28;20223;-36
2023/05/03 06:03:52;;;;;;;8.77;6.30;;;8.70;99.90;;;;;;5003423;28;20282;-40
2023/05/03 06:06:19;;;;;;;9.10;6.47;;;8.70;99.90;;;;;;5013134;28;20337;-38
2023/05/03 06:08:48;;;;;;;12.90;6.47;;;8.80;99.90;;;;;;5012659;28;20264;-41
2023/05/03 06:11:14;;;;;;;9.10;6.33;;;8.90;99.90;;;;;;5029086;28;20318;-39
2023/05/03 06:13:41;;;;;;;9.13;6.37;;;9.00;99.90;;;;;;5029078;28;20180;-41
2023/05/03 06:16:10;;;;;;;9.37;6.43;;;9.00;99.90;;;;;;5012935;28;20205;-40
2023/05/03 06:18:36;;;;;;;8.30;5.67;;;9.10;99.90;;;;;;4996051;28;20183;-39
2023/05/03 06:21:02;;;;;;;9.50;6.07;;;9.10;99.90;;;;;;5012316;28;20214;-42
2023/05/03 06:23:29;;;;;;;8.67;6.57;;;9.20;99.90;;;;;;4995994;28;20201;-38
2023/05/03 06:25:56;;;;;;;10.23;6.70;;;9.20;99.90;;;;;;4996234;28;20261;-42
2023/05/03 06:28:23;;;;;;;10.67;7.13;;;9.20;99.90;;;;;;5012127;28;20179;-38
2023/05/03 06:30:52;;;;;;;8.67;6.43;;;9.20;99.90;;;;;;5009966;28;20183;-39
2023/05/03 06:33:18;;;;;;;11.67;7.60;;;9.30;99.90;;;;;;4989505;28;20227;-39
2023/05/03 06:35:46;;;;;;;8.83;6.87;;;9.30;99.90;;;;;;4992666;28;20207;-40
2023/05/03 06:38:16;;;;;;;10.97;7.67;;;9.30;99.90;;;;;;5008461;28;20186;-38
2023/05/03 06:40:44;;;;;;;11.27;8.17;;;9.40;99.90;;;;;;4987315;28;20176;-39
2023/05/03 06:43:12;;;;;;;12.80;9.57;;;9.50;99.90;;;;;;4994449;28;20275;-40
2023/05/03 06:45:43;;;;;;;13.67;9.60;;;9.50;99.90;;;;;;4987813;28;20203;-42
2023/05/03 06:48:09;;;;;;;12.67;10.00;;;9.60;99.90;;;;;;5024837;28;20263;-39
2023/05/03 06:50:35;;;;;;;12.63;11.10;;;9.70;99.90;;;;;;4996067;28;20176;-40
2023/05/03 06:53:01;;;;;;;12.33;10.90;;;9.80;99.90;;;;;;5017695;23;20225;-31
2023/05/03 06:55:27;;;;;;;15.13;11.03;;;9.80;99.90;;;;;;5008550;28;20218;-31
2023/05/03 06:57:53;;;;;;;14.93;11.90;;;9.90;99.90;;;;;;4992159;28;20199;-32
2023/05/03 07:00:22;;;;;;;11.73;9.80;;;10.00;99.90;;;;;;5008414;28;20202;-32
2023/05/03 07:02:48;;;;;;;13.80;10.70;;;10.00;99.90;;;;;;4995268;28;20246;-31
2023/05/03 07:05:14;;;;;;;14.57;12.07;;;10.10;99.90;;;;;;4996001;28;20175;-31
2023/05/03 07:07:39;;;;;;;13.97;10.67;;;10.20;99.90;;;;;;5029203;28;20186;-31
2023/05/03 07:10:06;;;;;;;14.40;11.20;;;10.30;99.90;;;;;;4995883;28;20187;-31
2023/05/03 07:12:31;;;;;;;13.03;10.50;;;10.40;99.90;;;;;;4995470;28;20625;-31
2023/05/03 07:14:57;;;;;;;15.27;10.90;;;10.50;99.90;;;;;;4995319;28;20175;-32
2023/05/03 07:17:24;;;;;;;11.80;9.77;;;10.50;99.90;;;;;;4995539;28;20214;-31
2023/05/03 07:19:50;;;;;;;12.50;9.77;;;10.60;99.90;;;;;;4995161;28;20191;-31
2023/05/03 07:22:17;;;;;;;12.87;9.87;;;10.60;99.90;;;;;;5012565;28;20174;-31
2023/05/03 07:24:43;;;;;;;13.10;10.23;;;10.60;99.90;;;;;;4994569;28;20202;-32
2023/05/03 07:27:09;;;;;;;15.73;10.87;;;10.70;99.90;;;;;;5020064;28;20268;-31
2023/05/03 07:29:35;;;;;;;13.03;10.27;;;10.60;99.90;;;;;;4992959;28;20184;-31
2023/05/03 07:32:00;;;;;;;15.10;9.77;;;10.40;99.90;;;;;;5007914;28;20180;-31
2023/05/03 07:34:26;;;;;;;13.73;10.17;;;10.40;99.90;;;;;;5007916;28;20204;-31
2023/05/03 07:36:52;;;;;;;21.67;11.97;;;10.50;99.90;;;;;;4993265;28;20184;-31
2023/05/03 07:39:18;;;;;;;13.63;10.17;;;10.50;99.90;;;;;;4993044;28;20176;-31
2023/05/03 07:41:44;;;;;;;12.53;9.97;;;10.60;99.90;;;;;;4991335;28;20191;-31
2023/05/03 07:44:10;;;;;;;15.47;10.53;;;10.70;99.90;;;;;;5007853;28;20259;-31
2023/05/03 07:46:35;;;;;;;13.10;9.83;;;10.80;99.90;;;;;;5007933;28;20217;-31
2023/05/03 07:49:03;;;;;;;17.10;11.10;;;10.90;99.90;;;;;;4991391;28;20177;-32
2023/05/03 07:51:30;;;;;;;15.03;11.30;;;10.80;99.90;;;;;;4991249;28;20270;-31
2023/05/03 07:53:56;;;;;;;13.13;10.67;;;10.80;99.90;;;;;;5010611;28;20216;-31
2023/05/03 07:56:22;;;;;;;14.53;10.97;;;10.90;99.90;;;;;;4996302;28;20194;-31
2023/05/03 07:58:48;;;;;;;13.57;10.27;;;11.00;99.90;;;;;;5007729;28;20179;-31
2023/05/03 08:01:13;;;;;;;14.30;10.37;;;11.00;99.90;;;;;;4990828;28;20189;-31
2023/05/03 08:03:39;;;;;;;14.90;10.33;;;11.20;99.90;;;;;;5007268;28;20214;-31
2023/05/03 08:06:05;;;;;;;16.47;10.37;;;11.30;99.90;;;;;;5007515;28;20214;-31
2023/05/03 08:08:32;;;;;;;15.23;10.90;;;11.40;99.90;;;;;;5002068;28;20196;-31
2023/05/03 08:10:58;;;;;;;12.83;10.33;;;11.50;99.90;;;;;;4979540;28;20190;-32
2023/05/03 08:13:24;;;;;;;11.53;10.03;;;11.70;99.90;;;;;;4986600;28;20213;-31
2023/05/03 08:15:50;;;;;;;14.30;11.20;;;11.80;99.90;;;;;;5011326;28;20184;-31
2023/05/03 08:18:16;;;;;;;13.10;9.67;;;11.90;99.90;;;;;;5022233;28;20194;-31
2023/05/03 08:20:43;;;;;;;12.00;10.00;;;12.00;99.90;;;;;;5008661;28;20194;-31
2023/05/03 08:23:10;;;;;;;13.73;10.10;;;12.10;99.90;;;;;;5000180;28;20208;-32
2023/05/03 08:25:36;;;;;;;14.63;11.33;;;12.20;99.90;;;;;;4996103;28;20260;-31
2023/05/03 08:28:02;;;;;;;11.50;10.17;;;12.20;99.90;;;;;;4986989;28;20193;-32
2023/05/03 08:30:29;;;;;;;14.20;11.70;;;12.40;99.90;;;;;;4993245;28;20189;-31
2023/05/03 08:32:55;;;;;;;12.87;10.73;;;12.50;99.90;;;;;;5004926;28;20701;-32
2023/05/03 08:35:20;;;;;;;13.13;10.77;;;12.50;99.90;;;;;;5005646;28;20198;-31
2023/05/03 08:37:46;;;;;;;13.10;10.40;;;12.60;99.90;;;;;;5027511;28;20204;-32
2023/05/03 08:40:14;;;;;;;12.87;10.17;;;12.90;99.90;;;;;;4994335;28;20180;-31
2023/05/03 08:42:41;;;;;;;11.13;9.83;;;13.20;99.90;;;;;;5011160;28;20286;-32
2023/05/03 08:45:10;;;;;;;13.53;9.63;;;13.60;99.90;;;;;;4993002;28;20223;-31
2023/05/03 08:47:39;;;;;;;13.70;10.10;;;13.90;99.90;;;;;;5010563;28;20211;-31
2023/05/03 08:50:06;;;;;;;11.43;9.53;;;14.00;99.90;;;;;;5009074;28;20187;-32
2023/05/03 08:52:33;;;;;;;11.27;9.70;;;14.10;99.90;;;;;;4992840;28;20176;-31
2023/05/03 08:54:59;;;;;;;17.23;10.40;;;13.90;99.90;;;;;;5010651;28;20206;-32
2023/05/03 08:57:26;;;;;;;10.77;9.23;;;14.10;99.90;;;;;;4992861;28;20282;-32
2023/05/03 08:59:53;;;;;;;11.93;9.93;;;14.20;99.90;;;;;;4989584;28;20192;-32
2023/05/03 09:02:19;;;;;;;12.77;10.17;;;14.50;99.90;;;;;;5007652;28;20290;-31
2023/05/03 09:04:45;;;;;;;13.23;10.47;;;14.80;99.90;;;;;;4992220;28;20273;-32
2023/05/03 09:07:11;;;;;;;10.53;9.33;;;15.00;99.90;;;;;;4992056;28;20243;-31
2023/05/03 09:09:38;;;;;;;12.23;9.60;;;15.20;99.90;;;;;;4993013;28;20258;-31
2023/05/03 09:12:04;;;;;;;11.77;9.40;;;15.50;99.90;;;;;;4992118;28;20225;-31
2023/05/03 09:14:30;;;;;;;13.07;9.23;;;15.60;99.90;;;;;;4993557;28;20277;-32
2023/05/03 09:17:16;;;;;;;10.20;8.97;;;15.70;99.90;;;;;;4992970;28;20274;-32
2023/05/03 09:19:52;;;;;;;9.60;8.70;;;15.80;99.90;;;;;;4993154;28;20179;-32
2023/05/03 09:22:18;;;;;;;8.17;7.37;;;16.10;99.90;;;;;;5010513;28;20335;-32
2023/05/03 09:24:55;;;;;;;11.63;10.40;;;16.30;99.90;;;;;;4995779;28;20183;-32
2023/05/03 09:27:23;;;;;;;11.07;9.43;;;16.30;99.90;;;;;;5013901;28;20213;-32
2023/05/03 09:29:49;;;;;;;11.03;9.20;;;16.00;99.90;;;;;;5014639;28;20250;-32
2023/05/03 09:32:16;;;;;;;9.40;8.40;;;15.80;99.90;;;;;;4996674;28;20234;-32
2023/05/03 09:34:43;;;;;;;10.07;9.07;;;16.10;99.90;;;;;;4994848;28;20202;-32
2023/05/03 09:37:10;;;;;;;8.80;7.90;;;16.40;99.90;;;;;;4996500;28;20277;-31
2023/05/03 09:39:36;;;;;;;9.37;8.33;;;16.60;99.90;;;;;;5012364;28;20190;-32
2023/05/03 09:42:16;;;;;;;9.20;8.20;;;16.80;99.90;;;;;;5029285;28;20219;-32
2023/05/03 09:44:52;;;;;;;9.68;8.05;;;16.80;99.90;;;;;;4996267;28;20233;-33
2023/05/03 09:47:19;;;;;;;9.10;8.20;;;16.90;99.90;;;;;;4996370;28;20681;-33
2023/05/03 09:49:44;;;;;;;8.55;7.68;;;17.00;99.90;;;;;;4996115;28;20171;-33
2023/05/03 09:52:10;;;;;;;9.30;7.85;;;17.20;99.90;;;;;;4996741;28;20182;-33
2023/05/03 09:54:37;;;;;;;9.50;8.27;;;17.40;99.90;;;;;;5013619;28;20219;-33
2023/05/03 09:57:04;;;;;;;10.05;8.13;;;17.60;99.90;;;;;;5014143;28;20191;-32
2023/05/03 09:59:38;;;;;;;9.00;8.10;;;17.70;99.90;;;;;;4995899;28;20262;-32
2023/05/03 10:02:06;;;;;;;12.20;8.80;;;17.40;99.90;;;;;;5014298;28;20171;-33
2023/05/03 10:04:46;;;;;;;9.63;8.65;;;17.50;99.90;;;;;;4999185;28;20209;-32
2023/05/03 10:07:16;;;;;;;8.20;7.32;;;17.70;99.90;;;;;;4995637;28;20241;-33
2023/05/03 10:09:44;;;;;;;7.20;6.45;;;18.10;99.90;;;;;;4994723;28;20253;-33
2023/05/03 10:12:12;;;;;;;8.73;7.82;;;18.40;99.90;;;;;;4996574;28;20172;-33
2023/05/03 10:14:43;;;;;;;8.48;7.28;;;18.70;99.90;;;;;;4996124;28;20199;-33
2023/05/03 10:17:32;;;;;;;6.88;6.18;;;18.60;99.90;;;;;;5013476;28;20194;-32
2023/05/03 10:20:19;;;;;;;8.57;5.20;;;18.80;99.90;;;;;;4997360;28;20183;-33
2023/05/03 10:23:20;;;;;;;7.10;6.40;;;18.90;99.90;;;;;;4996192;28;20205;-32
2023/05/03 10:26:04;;;;;;;6.45;5.85;;;18.90;99.90;;;;;;4965811;28;20288;-32
2023/05/03 10:28:32;;;;;;;7.15;5.25;;;19.00;99.90;;;;;;4975606;28;20229;-32
2023/05/03 10:30:58;;;;;;;7.72;5.53;;;19.10;99.90;;;;;;4995273;28;20179;-32
2023/05/03 10:33:30;;;;;;;6.45;5.18;;;19.20;99.90;;;;;;4979480;28;20199;-32
2023/05/03 10:35:58;;;;;;;5.47;4.80;;;19.10;99.90;;;;;;5012349;28;20193;-32
2023/05/03 10:38:28;;;;;;;6.72;5.30;;;19.30;99.90;;;;;;5019584;28;20195;-32
2023/05/03 10:40:55;;;;;;;5.35;4.43;;;19.50;99.90;;;;;;5005683;28;20195;-32
2023/05/03 10:43:33;;;;;;;4.70;4.30;;;19.50;99.90;;;;;;5012922;28;20286;-32
2023/05/03 10:46:07;;;;;;;4.53;4.03;;;19.90;99.90;;;;;;4993519;28;20214;-32
2023/05/03 10:48:33;;;;;;;5.00;4.55;;;20.10;99.90;;;;;;4995350;28;20233;-32
2023/05/03 10:51:29;;;;;;;4.70;4.30;;;20.10;99.90;;;;;;5010601;28;20270;-33
2023/05/03 10:53:55;;;;;;;4.20;3.80;;;20.40;99.90;;;;;;4996763;28;20223;-32
2023/05/03 10:56:21;;;;;;;5.13;4.38;;;20.40;99.90;;;;;;5012252;28;20197;-32
2023/05/03 10:58:57;;;;;;;6.38;5.03;;;20.40;99.90;;;;;;4998211;28;20188;-33
2023/05/03 11:01:26;;;;;;;6.63;5.95;;;20.20;99.90;;;;;;5012065;28;20179;-33
2023/05/03 11:04:10;;;;;;;8.02;5.07;;;20.00;99.90;;;;;;5018734;28;20294;-31
2023/05/03 11:06:44;;;;;;;5.30;4.80;;;19.90;99.90;;;;;;5012594;28;20246;-32
2023/05/03 11:09:13;;;;;;;5.10;4.60;;;20.00;99.90;;;;;;4996107;28;20300;-32
2023/05/03 11:11:40;;;;;;;5.32;4.20;;;19.80;99.90;;;;;;5005467;28;20322;-32
2023/05/03 11:14:07;;;;;;;6.60;4.80;;;19.90;99.90;;;;;;5011158;28;20290;-32
2023/05/03 11:16:45;;;;;;;5.53;4.88;;;20.10;99.90;;;;;;4994897;28;20198;-32
2023/05/03 11:19:12;;;;;;;5.72;4.88;;;20.20;99.90;;;;;;5026903;28;20187;-32
2023/05/03 11:21:37;;;;;;;5.70;5.15;;;20.60;99.90;;;;;;5010534;28;20221;-32
2023/05/03 11:24:04;;;;;;;6.47;4.97;;;20.70;99.90;;;;;;5010718;28;20207;-32
2023/05/03 11:26:35;;;;;;;5.25;4.75;;;20.80;99.90;;;;;;5010303;28;20298;-32
2023/05/03 11:29:00;;;;;;;6.32;5.30;;;21.00;99.90;;;;;;4997001;28;20179;-32
2023/05/03 11:31:27;;;;;;;6.32;5.00;;;21.20;99.90;;;;;;5003163;28;20214;-32
2023/05/03 11:33:52;;;;;;;5.57;5.03;;;21.20;99.90;;;;;;4995029;28;20218;-31
2023/05/03 11:36:19;;;;;;;6.20;4.45;;;21.20;99.90;;;;;;5007438;28;20559;-31
2023/05/03 11:38:45;;;;;;;5.18;4.63;;;21.40;99.90;;;;;;4994117;28;20194;-31
2023/05/03 11:41:13;;;;;;;6.10;4.32;;;21.60;99.90;;;;;;4994446;28;20183;-31
2023/05/03 11:43:46;;;;;;;5.50;4.90;;;21.40;99.90;;;;;;5011358;28;20204;-31
2023/05/03 11:46:21;;;;;;;5.55;4.88;;;21.50;99.90;;;;;;5006250;28;20202;-31
2023/05/03 11:48:47;;;;;;;6.18;5.18;;;21.40;99.90;;;;;;5000843;28;20183;-31
2023/05/03 11:51:13;;;;;;;5.00;4.38;;;21.50;99.90;;;;;;5016753;28;20318;-31
2023/05/03 11:53:42;;;;;;;6.25;4.70;;;21.50;99.90;;;;;;4993601;28;20226;-31
2023/05/03 11:56:12;;;;;;;6.70;4.82;;;21.70;99.90;;;;;;4992494;28;20286;-31
2023/05/03 11:58:59;;;;;;;5.15;4.65;;;21.50;99.90;;;;;;5001428;28;20325;-31
2023/05/03 12:01:29;;;;;;;5.38;4.85;;;21.50;99.90;;;;;;4985730;28;20268;-31
2023/05/03 12:03:55;;;;;;;6.53;5.55;;;21.50;99.90;;;;;;5019801;28;20207;-31
2023/05/03 12:06:21;;;;;;;5.10;4.47;;;21.20;99.90;;;;;;4974481;28;20207;-31
2023/05/03 12:08:47;;;;;;;4.93;4.43;;;21.30;99.90;;;;;;4987539;28;20183;-31
2023/05/03 12:11:13;;;;;;;6.32;5.22;;;21.50;99.90;;;;;;4996559;28;20317;-31
2023/05/03 12:13:39;;;;;;;5.53;4.70;;;21.70;99.90;;;;;;5018860;28;20203;-31
2023/05/03 12:16:07;;;;;;;6.75;5.07;;;21.70;99.90;;;;;;4999966;28;20259;-31
2023/05/03 12:19:01;;;;;;;5.18;4.40;;;21.90;99.90;;;;;;4994128;28;20217;-31
2023/05/03 12:21:47;;;;;;;6.88;5.15;;;22.10;99.90;;;;;;4970284;28;20186;-31
2023/05/03 12:24:16;;;;;;;5.22;4.70;;;21.90;99.90;;;;;;5019005;28;20206;-33
2023/05/03 12:26:44;;;;;;;7.28;5.80;;;21.70;99.90;;;;;;5009690;28;20219;-30
2023/05/03 12:29:11;;;;;;;6.57;5.03;;;21.80;99.90;;;;;;4996563;28;20205;-32
2023/05/03 12:31:38;;;;;;;5.97;5.20;;;21.80;99.90;;;;;;4992106;28;20255;-32
2023/05/03 12:34:04;;;;;;;4.88;4.32;;;21.80;99.90;;;;;;5001994;28;20203;-32
2023/05/03 12:36:33;;;;;;;4.43;4.03;;;21.50;99.90;;;;;;5012158;28;20210;-31
2023/05/03 12:39:00;;;;;;;4.93;4.18;;;21.40;99.90;;;;;;5001356;28;20195;-30
2023/05/03 12:41:28;;;;;;;6.13;4.30;;;20.90;99.90;;;;;;4993694;28;20278;-32
2023/05/03 12:43:57;;;;;;;4.95;4.35;;;20.90;99.90;;;;;;4990748;28;20211;-32
2023/05/03 12:46:23;;;;;;;4.60;3.88;;;21.10;99.90;;;;;;4986827;28;20213;-32
2023/05/03 12:48:51;;;;;;;5.78;4.10;;;21.40;99.90;;;;;;5026729;28;20258;-32
2023/05/03 12:51:17;;;;;;;4.18;3.78;;;21.80;99.90;;;;;;4990908;28;20267;-31
2023/05/03 12:53:49;;;;;;;4.20;3.75;;;22.00;99.90;;;;;;4983250;28;20265;-30